Ana Sayfa
METAR-TAF:

METAR-TAF

Havaalanları :

Hermosillo, Meksika

Enlem: 29-04N, Boylam: 110-57W, yükseklik: 211 m

Güncel hava durumu gözlemi

Rapor saat 01:40 UTC de 1 saat ve 10 dakika önce yapıldı.
Rüzgar güney/güneybatıdan 5 kt
Sıcaklık 20°C
Nem 68%
Basınç 1014 hPa
Görüş mesafesi: 16.1 km
Açık gökyüzü

METAR: MMHO 160140Z 21005KT 10SM SKC 20/14 A2994 RMK HZY

Saat: 19:50 (02:50 UTC)

Tahmin

Rapor saat 16:59 UTC de 9 saat ve 51 dakika önce yapıldı.
Ayın 15'si saat 18 UTC'den ayın 16'si saat 18 UTC'ye kadar geçerli Tahmin
Rüzgar güneybatıdan 10 kt
Görüş mesafesi: 10 km
Açık gökyüzü
Ayın 16'si saat 0300 UTC'den
Rüzgar kuzeydan kt
Görüş mesafesi: 10 km
Açık gökyüzü

TAF: MMHO 151659Z 1518/1618 23010KT P6SM SKC FM160300 00000KT P6SM SKC

4.000'den fazla havaalanı için hava durumu gözlemleri ve tahminleri (METAR ve TAF raporları).

Kullanılabilir istasyonlar harita üzerinde sarı ve kırmızı noktalarla gösterilir.

İstasyonun adını görmek için fareyi noktanın üzerinde gezdirin.

Sonrasında hava gözlem ve tahminlerini görmek için tıklayın.

Haritayı değiştirmek için: yaklaştırmak için siyah artı işaretli yeşil düğmeye ve uzaklaştırmak için de eksi işaretli düğmeye hızla tıklayın; bitişik haritalar için yeşil okları kullanın.


METAR-TAF: